sensor_id;sensor_type;location;lat;lon;timestamp;pressure;altitude;pressure_sealevel;temperature;humidity
27712;BME280;2377;51.734;8.950;2023-07-31T00:00:30;97395.22;;;16.93;100.00
27712;BME280;2377;51.734;8.950;2023-07-31T00:02:57;97393.16;;;17.00;100.00
27712;BME280;2377;51.734;8.950;2023-07-31T00:05:24;97394.97;;;16.95;100.00
27712;BME280;2377;51.734;8.950;2023-07-31T00:07:51;97388.78;;;16.96;100.00
27712;BME280;2377;51.734;8.950;2023-07-31T00:10:19;97391.63;;;16.94;100.00
27712;BME280;2377;51.734;8.950;2023-07-31T00:12:55;97381.31;;;16.89;100.00
27712;BME280;2377;51.734;8.950;2023-07-31T00:15:29;97379.78;;;16.88;100.00
27712;BME280;2377;51.734;8.950;2023-07-31T00:17:56;97375.13;;;16.85;100.00
27712;BME280;2377;51.734;8.950;2023-07-31T00:20:27;97371.03;;;16.84;100.00
27712;BME280;2377;51.734;8.950;2023-07-31T00:22:54;97367.13;;;16.81;100.00
27712;BME280;2377;51.734;8.950;2023-07-31T00:25:21;97367.91;;;16.87;100.00
27712;BME280;2377;51.734;8.950;2023-07-31T00:27:47;97361.19;;;16.86;100.00
27712;BME280;2377;51.734;8.950;2023-07-31T00:30:15;97357.59;;;16.87;100.00
27712;BME280;2377;51.734;8.950;2023-07-31T00:32:43;97352.44;;;16.82;100.00
27712;BME280;2377;51.734;8.950;2023-07-31T00:35:10;97359.66;;;16.80;100.00
27712;BME280;2377;51.734;8.950;2023-07-31T00:37:37;97344.69;;;16.82;100.00
27712;BME280;2377;51.734;8.950;2023-07-31T00:40:06;97345.22;;;16.79;100.00
27712;BME280;2377;51.734;8.950;2023-07-31T00:42:33;97342.63;;;16.74;100.00
27712;BME280;2377;51.734;8.950;2023-07-31T00:45:00;97332.28;;;16.74;100.00
27712;BME280;2377;51.734;8.950;2023-07-31T00:47:27;97336.44;;;16.69;100.00
27712;BME280;2377;51.734;8.950;2023-07-31T00:49:59;97334.66;;;16.70;100.00
27712;BME280;2377;51.734;8.950;2023-07-31T00:52:27;97331.25;;;16.69;100.00
27712;BME280;2377;51.734;8.950;2023-07-31T00:55:09;97333.34;;;16.67;100.00
27712;BME280;2377;51.734;8.950;2023-07-31T00:57:38;97323.25;;;16.76;100.00
27712;BME280;2377;51.734;8.950;2023-07-31T01:00:09;97324.03;;;16.72;100.00
27712;BME280;2377;51.734;8.950;2023-07-31T01:02:37;97317.34;;;16.70;100.00
27712;BME280;2377;51.734;8.950;2023-07-31T01:05:06;97312.97;;;16.66;100.00
27712;BME280;2377;51.734;8.950;2023-07-31T01:07:49;97312.72;;;16.57;100.00
27712;BME280;2377;51.734;8.950;2023-07-31T01:10:23;97301.66;;;16.57;100.00
27712;BME280;2377;51.734;8.950;2023-07-31T01:12:57;97308.09;;;16.59;100.00
27712;BME280;2377;51.734;8.950;2023-07-31T01:15:25;97306.28;;;16.55;100.00
27712;BME280;2377;51.734;8.950;2023-07-31T01:17:55;97309.63;;;16.65;100.00
27712;BME280;2377;51.734;8.950;2023-07-31T01:20:29;97300.88;;;16.46;100.00
27712;BME280;2377;51.734;8.950;2023-07-31T01:23:35;97301.91;;;16.50;100.00
27712;BME280;2377;51.734;8.950;2023-07-31T01:26:17;97291.84;;;16.54;100.00
27712;BME280;2377;51.734;8.950;2023-07-31T01:28:55;97302.69;;;16.51;100.00
27712;BME280;2377;51.734;8.950;2023-07-31T01:31:24;97288.25;;;16.49;100.00
27712;BME280;2377;51.734;8.950;2023-07-31T01:33:57;97295.50;;;16.42;100.00
27712;BME280;2377;51.734;8.950;2023-07-31T01:36:25;97290.34;;;16.42;100.00
27712;BME280;2377;51.734;8.950;2023-07-31T01:38:57;97297.28;;;16.47;100.00
27712;BME280;2377;51.734;8.950;2023-07-31T01:41:29;97297.81;;;16.44;100.00
27712;BME280;2377;51.734;8.950;2023-07-31T01:43:56;97296.75;;;16.50;100.00
27712;BME280;2377;51.734;8.950;2023-07-31T01:46:26;97302.19;;;16.48;100.00
27712;BME280;2377;51.734;8.950;2023-07-31T01:48:58;97289.03;;;16.45;100.00
27712;BME280;2377;51.734;8.950;2023-07-31T01:51:25;97289.81;;;16.45;100.00
27712;BME280;2377;51.734;8.950;2023-07-31T01:54:01;97289.06;;;16.40;100.00
27712;BME280;2377;51.734;8.950;2023-07-31T01:56:30;97282.84;;;16.41;100.00
27712;BME280;2377;51.734;8.950;2023-07-31T01:58:57;97292.66;;;16.39;100.00
27712;BME280;2377;51.734;8.950;2023-07-31T02:01:32;97291.09;;;16.48;100.00
27712;BME280;2377;51.734;8.950;2023-07-31T02:07:05;97289.56;;;16.47;100.00
27712;BME280;2377;51.734;8.950;2023-07-31T02:09:32;97278.94;;;16.59;100.00
27712;BME280;2377;51.734;8.950;2023-07-31T02:12:01;97281.53;;;16.54;100.00
27712;BME280;2377;51.734;8.950;2023-07-31T02:14:28;97282.84;;;16.51;100.00
27712;BME280;2377;51.734;8.950;2023-07-31T02:16:55;97279.97;;;16.53;100.00
27712;BME280;2377;51.734;8.950;2023-07-31T02:19:22;97276.38;;;16.54;100.00
27712;BME280;2377;51.734;8.950;2023-07-31T02:21:49;97275.09;;;16.46;100.00
27712;BME280;2377;51.734;8.950;2023-07-31T02:24:16;97271.22;;;16.43;100.00
27712;BME280;2377;51.734;8.950;2023-07-31T02:26:43;97275.63;;;16.43;100.00
27712;BME280;2377;51.734;8.950;2023-07-31T02:29:12;97277.97;;;16.44;100.00
27712;BME280;2377;51.734;8.950;2023-07-31T02:31:39;97272.50;;;16.46;100.00
27712;BME280;2377;51.734;8.950;2023-07-31T02:34:06;97274.06;;;16.47;100.00
27712;BME280;2377;51.734;8.950;2023-07-31T02:36:33;97272.03;;;16.44;100.00
27712;BME280;2377;51.734;8.950;2023-07-31T02:39:00;97268.41;;;16.45;100.00
27712;BME280;2377;51.734;8.950;2023-07-31T02:41:28;97277.69;;;16.41;100.00
27712;BME280;2377;51.734;8.950;2023-07-31T02:43:55;97267.41;;;16.36;100.00
27712;BME280;2377;51.734;8.950;2023-07-31T02:46:23;97270.25;;;16.29;100.00
27712;BME280;2377;51.734;8.950;2023-07-31T02:48:50;97267.16;;;16.32;100.00
27712;BME280;2377;51.734;8.950;2023-07-31T02:51:18;97275.13;;;16.36;100.00
27712;BME280;2377;51.734;8.950;2023-07-31T02:53:47;97249.63;;;16.29;100.00
27712;BME280;2377;51.734;8.950;2023-07-31T02:56:15;97273.88;;;16.28;100.00
27712;BME280;2377;51.734;8.950;2023-07-31T02:58:42;97272.56;;;16.31;100.00
27712;BME280;2377;51.734;8.950;2023-07-31T03:01:12;97257.88;;;16.26;100.00
27712;BME280;2377;51.734;8.950;2023-07-31T03:03:42;97267.44;;;16.25;100.00
27712;BME280;2377;51.734;8.950;2023-07-31T03:06:09;97259.72;;;16.20;100.00
27712;BME280;2377;51.734;8.950;2023-07-31T03:08:36;97274.63;;;16.28;100.00
27712;BME280;2377;51.734;8.950;2023-07-31T03:11:04;97266.13;;;16.28;100.00
27712;BME280;2377;51.734;8.950;2023-07-31T03:13:31;97273.09;;;16.22;100.00
27712;BME280;2377;51.734;8.950;2023-07-31T03:15:58;97270.53;;;16.17;100.00
27712;BME280;2377;51.734;8.950;2023-07-31T03:18:25;97259.19;;;16.23;100.00
27712;BME280;2377;51.734;8.950;2023-07-31T03:20:53;97269.75;;;16.17;100.00
27712;BME280;2377;51.734;8.950;2023-07-31T03:23:21;97273.63;;;16.19;100.00
27712;BME280;2377;51.734;8.950;2023-07-31T03:25:58;97264.13;;;16.04;100.00
27712;BME280;2377;51.734;8.950;2023-07-31T03:28:25;97285.00;;;16.08;100.00
27712;BME280;2377;51.734;8.950;2023-07-31T03:30:53;97271.09;;;16.04;100.00
27712;BME280;2377;51.734;8.950;2023-07-31T03:33:20;97276.75;;;16.16;100.00
27712;BME280;2377;51.734;8.950;2023-07-31T03:35:47;97285.00;;;15.98;100.00
27712;BME280;2377;51.734;8.950;2023-07-31T03:38:16;97282.94;;;16.10;100.00
27712;BME280;2377;51.734;8.950;2023-07-31T03:40:43;97282.94;;;16.10;100.00
27712;BME280;2377;51.734;8.950;2023-07-31T03:43:11;97269.00;;;16.11;100.00
27712;BME280;2377;51.734;8.950;2023-07-31T03:45:38;97275.97;;;16.16;100.00
27712;BME280;2377;51.734;8.950;2023-07-31T03:48:05;97282.94;;;16.00;100.00
27712;BME280;2377;51.734;8.950;2023-07-31T03:50:33;97274.41;;;16.15;100.00
27712;BME280;2377;51.734;8.950;2023-07-31T03:53:00;97265.44;;;15.97;100.00
27712;BME280;2377;51.734;8.950;2023-07-31T03:55:29;97262.81;;;16.07;100.00
27712;BME280;2377;51.734;8.950;2023-07-31T03:57:56;97266.97;;;16.03;100.00
27712;BME280;2377;51.734;8.950;2023-07-31T04:00:23;97271.31;;;16.13;100.00
27712;BME280;2377;51.734;8.950;2023-07-31T04:02:51;97265.41;;;16.02;100.00
27712;BME280;2377;51.734;8.950;2023-07-31T04:05:18;97264.13;;;16.04;100.00
27712;BME280;2377;51.734;8.950;2023-07-31T04:07:45;97266.19;;;16.08;100.00
27712;BME280;2377;51.734;8.950;2023-07-31T04:10:12;97271.59;;;16.06;100.00
27712;BME280;2377;51.734;8.950;2023-07-31T04:12:41;97252.78;;;16.05;100.00
27712;BME280;2377;51.734;8.950;2023-07-31T04:15:09;97270.56;;;16.07;100.00
27712;BME280;2377;51.734;8.950;2023-07-31T04:17:36;97262.31;;;16.00;100.00
27712;BME280;2377;51.734;8.950;2023-07-31T04:20:05;97271.59;;;16.06;100.00
27712;BME280;2377;51.734;8.950;2023-07-31T04:22:32;97272.63;;;16.00;100.00
27712;BME280;2377;51.734;8.950;2023-07-31T04:24:59;97270.56;;;16.02;100.00
27712;BME280;2377;51.734;8.950;2023-07-31T04:27:26;97270.56;;;16.07;100.00
27712;BME280;2377;51.734;8.950;2023-07-31T04:29:55;97274.16;;;16.06;100.00
27712;BME280;2377;51.734;8.950;2023-07-31T04:32:22;97263.34;;;16.04;100.00
27712;BME280;2377;51.734;8.950;2023-07-31T04:34:49;97252.00;;;16.05;100.00
27712;BME280;2377;51.734;8.950;2023-07-31T04:37:16;97268.00;;;16.02;100.00
27712;BME280;2377;51.734;8.950;2023-07-31T04:39:44;97263.34;;;15.94;100.00
27712;BME280;2377;51.734;8.950;2023-07-31T04:42:11;97263.34;;;15.94;100.00
27712;BME280;2377;51.734;8.950;2023-07-31T04:44:38;97257.16;;;16.00;100.00
27712;BME280;2377;51.734;8.950;2023-07-31T04:47:07;97263.34;;;15.94;100.00
27712;BME280;2377;51.734;8.950;2023-07-31T04:49:34;97264.91;;;16.00;100.00
27712;BME280;2377;51.734;8.950;2023-07-31T04:52:01;97263.09;;;15.95;100.00
27712;BME280;2377;51.734;8.950;2023-07-31T04:54:28;97269.53;;;15.98;100.00
27712;BME280;2377;51.734;8.950;2023-07-31T04:56:56;97274.19;;;15.96;100.00
27712;BME280;2377;51.734;8.950;2023-07-31T04:59:23;97267.47;;;16.00;100.00
27712;BME280;2377;51.734;8.950;2023-07-31T05:01:50;97274.72;;;15.88;100.00
27712;BME280;2377;51.734;8.950;2023-07-31T05:04:19;97276.00;;;15.95;100.00
27712;BME280;2377;51.734;8.950;2023-07-31T05:06:46;97266.44;;;15.96;100.00
27712;BME280;2377;51.734;8.950;2023-07-31T05:09:13;97277.53;;;15.96;100.00
27712;BME280;2377;51.734;8.950;2023-07-31T05:11:40;97269.53;;;16.03;100.00
27712;BME280;2377;51.734;8.950;2023-07-31T05:14:08;97277.03;;;15.99;100.00
27712;BME280;2377;51.734;8.950;2023-07-31T05:16:36;97266.72;;;15.99;100.00
27712;BME280;2377;51.734;8.950;2023-07-31T05:19:03;97278.31;;;15.97;100.00
27712;BME280;2377;51.734;8.950;2023-07-31T05:21:31;97266.72;;;15.99;100.00
27712;BME280;2377;51.734;8.950;2023-07-31T05:23:58;97273.16;;;15.92;100.00
27712;BME280;2377;51.734;8.950;2023-07-31T05:26:26;97266.69;;;16.04;100.00
27712;BME280;2377;51.734;8.950;2023-07-31T05:28:53;97275.22;;;16.00;100.00
27712;BME280;2377;51.734;8.950;2023-07-31T05:31:20;97273.94;;;15.97;100.00
27712;BME280;2377;51.734;8.950;2023-07-31T05:33:48;97261.81;;;16.03;100.00
27712;BME280;2377;51.734;8.950;2023-07-31T05:36:16;97268.25;;;16.05;100.00
27712;BME280;2377;51.734;8.950;2023-07-31T05:38:45;97262.81;;;16.07;100.00
27712;BME280;2377;51.734;8.950;2023-07-31T05:41:12;97273.38;;;16.11;100.00
27712;BME280;2377;51.734;8.950;2023-07-31T05:43:40;97265.91;;;16.14;100.00
27712;BME280;2377;51.734;8.950;2023-07-31T05:46:07;97265.38;;;16.17;100.00
27712;BME280;2377;51.734;8.950;2023-07-31T05:48:35;97273.66;;;16.14;100.00
27712;BME280;2377;51.734;8.950;2023-07-31T05:51:02;97264.59;;;16.17;100.00
27712;BME280;2377;51.734;8.950;2023-07-31T05:53:29;97253.75;;;16.20;100.00
27712;BME280;2377;51.734;8.950;2023-07-31T05:55:58;97271.06;;;16.19;100.00
27712;BME280;2377;51.734;8.950;2023-07-31T05:58:25;97268.44;;;16.24;100.00
27712;BME280;2377;51.734;8.950;2023-07-31T06:00:52;97266.38;;;16.32;100.00
27712;BME280;2377;51.734;8.950;2023-07-31T06:03:19;97265.38;;;16.27;100.00
27712;BME280;2377;51.734;8.950;2023-07-31T06:05:46;97271.28;;;16.28;100.00
27712;BME280;2377;51.734;8.950;2023-07-31T06:08:13;97265.06;;;16.34;100.00
27712;BME280;2377;51.734;8.950;2023-07-31T06:10:41;97264.06;;;16.35;100.00
27712;BME280;2377;51.734;8.950;2023-07-31T06:13:09;97261.72;;;16.34;100.00
27712;BME280;2377;51.734;8.950;2023-07-31T06:15:36;97263.78;;;16.32;100.00
27712;BME280;2377;51.734;8.950;2023-07-31T06:18:03;97262.50;;;16.34;100.00
27712;BME280;2377;51.734;8.950;2023-07-31T06:20:33;97255.28;;;16.31;100.00
27712;BME280;2377;51.734;8.950;2023-07-31T06:23:01;97258.63;;;16.32;100.00
27712;BME280;2377;51.734;8.950;2023-07-31T06:25:28;97258.91;;;16.30;100.00
27712;BME280;2377;51.734;8.950;2023-07-31T06:27:55;97258.09;;;16.40;100.00
27712;BME280;2377;51.734;8.950;2023-07-31T06:30:23;97262.47;;;16.44;100.00
27712;BME280;2377;51.734;8.950;2023-07-31T06:32:51;97254.47;;;16.46;100.00
27712;BME280;2377;51.734;8.950;2023-07-31T06:35:18;97255.50;;;16.45;100.00
27712;BME280;2377;51.734;8.950;2023-07-31T06:37:45;97261.91;;;16.53;100.00
27712;BME280;2377;51.734;8.950;2023-07-31T06:40:12;97256.00;;;16.47;100.00
27712;BME280;2377;51.734;8.950;2023-07-31T06:42:39;97251.34;;;16.54;100.00
27712;BME280;2377;51.734;8.950;2023-07-31T06:45:08;97247.50;;;16.46;100.00
27712;BME280;2377;51.734;8.950;2023-07-31T06:47:37;97240.00;;;16.50;100.00
27712;BME280;2377;51.734;8.950;2023-07-31T06:50:05;97250.31;;;16.50;100.00
27712;BME280;2377;51.734;8.950;2023-07-31T06:52:32;97238.69;;;16.53;100.00
27712;BME280;2377;51.734;8.950;2023-07-31T06:55:14;97231.25;;;16.51;100.00
27712;BME280;2377;51.734;8.950;2023-07-31T06:57:43;97239.47;;;16.48;100.00
27712;BME280;2377;51.734;8.950;2023-07-31T07:00:11;97242.03;;;16.53;100.00
27712;BME280;2377;51.734;8.950;2023-07-31T07:02:40;97235.59;;;16.51;100.00
27712;BME280;2377;51.734;8.950;2023-07-31T07:05:08;97236.91;;;16.48;100.00
27712;BME280;2377;51.734;8.950;2023-07-31T07:07:36;97230.44;;;16.51;100.00
27712;BME280;2377;51.734;8.950;2023-07-31T07:10:04;97230.69;;;16.54;100.00
27712;BME280;2377;51.734;8.950;2023-07-31T07:12:32;97233.03;;;16.56;100.00
27712;BME280;2377;51.734;8.950;2023-07-31T07:15:00;97225.78;;;16.53;100.00
27712;BME280;2377;51.734;8.950;2023-07-31T07:17:29;97229.13;;;16.53;100.00
27712;BME280;2377;51.734;8.950;2023-07-31T07:19:58;97231.44;;;16.60;100.00
27712;BME280;2377;51.734;8.950;2023-07-31T07:22:26;97224.97;;;16.62;100.00
27712;BME280;2377;51.734;8.950;2023-07-31T07:24:54;97221.88;;;16.65;100.00
27712;BME280;2377;51.734;8.950;2023-07-31T07:27:21;97224.97;;;16.62;100.00
27712;BME280;2377;51.734;8.950;2023-07-31T07:29:50;97223.94;;;16.63;100.00
27712;BME280;2377;51.734;8.950;2023-07-31T07:32:18;97227.06;;;16.60;100.00
27712;BME280;2377;51.734;8.950;2023-07-31T07:34:47;97221.63;;;16.62;100.00
27712;BME280;2377;51.734;8.950;2023-07-31T07:37:16;97226.06;;;16.56;100.00
27712;BME280;2377;51.734;8.950;2023-07-31T07:39:43;97218.06;;;16.53;100.00
27712;BME280;2377;51.734;8.950;2023-07-31T07:42:10;97216.75;;;16.55;100.00
27712;BME280;2377;51.734;8.950;2023-07-31T07:44:38;97218.28;;;16.61;100.00
27712;BME280;2377;51.734;8.950;2023-07-31T07:47:05;97217.25;;;16.57;100.00
27712;BME280;2377;51.734;8.950;2023-07-31T07:49:33;97216.75;;;16.60;100.00
27712;BME280;2377;51.734;8.950;2023-07-31T07:52:01;97228.09;;;16.59;100.00
27712;BME280;2377;51.734;8.950;2023-07-31T07:54:30;97233.75;;;16.61;100.00
27712;BME280;2377;51.734;8.950;2023-07-31T07:56:58;97236.84;;;16.63;100.00
27712;BME280;2377;51.734;8.950;2023-07-31T07:59:25;97246.63;;;16.66;100.00
27712;BME280;2377;51.734;8.950;2023-07-31T08:01:52;97248.97;;;16.68;100.00
27712;BME280;2377;51.734;8.950;2023-07-31T08:04:19;97244.31;;;16.65;100.00
27712;BME280;2377;51.734;8.950;2023-07-31T08:06:46;97254.63;;;16.70;100.00
27712;BME280;2377;51.734;8.950;2023-07-31T08:09:13;97253.88;;;16.64;100.00
27712;BME280;2377;51.734;8.950;2023-07-31T08:11:42;97244.81;;;16.67;100.00
27712;BME280;2377;51.734;8.950;2023-07-31T08:14:09;97241.72;;;16.65;100.00
27712;BME280;2377;51.734;8.950;2023-07-31T08:16:36;97236.09;;;16.58;100.00
27712;BME280;2377;51.734;8.950;2023-07-31T08:19:03;97239.97;;;16.60;100.00
27712;BME280;2377;51.734;8.950;2023-07-31T08:21:31;97241.44;;;16.72;100.00
27712;BME280;2377;51.734;8.950;2023-07-31T08:23:59;97224.66;;;16.84;100.00
27712;BME280;2377;51.734;8.950;2023-07-31T08:26:26;97233.69;;;16.82;100.00
27712;BME280;2377;51.734;8.950;2023-07-31T08:28:54;97221.50;;;16.93;100.00
27712;BME280;2377;51.734;8.950;2023-07-31T08:31:21;97224.84;;;16.98;100.00
27712;BME280;2377;51.734;8.950;2023-07-31T08:33:48;97225.34;;;17.00;100.00
27712;BME280;2377;51.734;8.950;2023-07-31T08:36:15;97218.56;;;17.04;100.00
27712;BME280;2377;51.734;8.950;2023-07-31T08:38:43;97225.25;;;17.10;100.00
27712;BME280;2377;51.734;8.950;2023-07-31T08:41:10;97219.59;;;17.08;100.00
27712;BME280;2377;51.734;8.950;2023-07-31T08:43:39;97214.44;;;17.08;100.00
27712;BME280;2377;51.734;8.950;2023-07-31T08:46:08;97209.53;;;17.07;100.00
27712;BME280;2377;51.734;8.950;2023-07-31T08:48:37;97203.03;;;17.15;100.00
27712;BME280;2377;51.734;8.950;2023-07-31T08:51:04;97198.31;;;17.22;100.00
27712;BME280;2377;51.734;8.950;2023-07-31T08:53:31;97197.28;;;17.23;100.00
27712;BME280;2377;51.734;8.950;2023-07-31T08:55:59;97197.78;;;17.25;100.00
27712;BME280;2377;51.734;8.950;2023-07-31T08:58:31;97194.66;;;17.28;100.00
27712;BME280;2377;51.734;8.950;2023-07-31T09:01:01;97199.00;;;17.32;100.00
27712;BME280;2377;51.734;8.950;2023-07-31T09:03:34;97192.31;;;17.31;100.00
27712;BME280;2377;51.734;8.950;2023-07-31T09:06:03;97193.88;;;17.27;100.00
27712;BME280;2377;51.734;8.950;2023-07-31T09:08:32;97179.09;;;17.33;100.00
27712;BME280;2377;51.734;8.950;2023-07-31T09:11:00;97187.66;;;17.28;100.00
27712;BME280;2377;51.734;8.950;2023-07-31T09:13:30;97181.72;;;17.28;100.00
27712;BME280;2377;51.734;8.950;2023-07-31T09:15:58;97187.19;;;17.26;100.00
27712;BME280;2377;51.734;8.950;2023-07-31T09:18:25;97189.53;;;17.23;100.00
27712;BME280;2377;51.734;8.950;2023-07-31T09:21:04;97179.97;;;17.23;100.00
27712;BME280;2377;51.734;8.950;2023-07-31T09:23:41;97187.50;;;17.20;100.00
27712;BME280;2377;51.734;8.950;2023-07-31T09:26:09;97176.09;;;17.21;100.00
27712;BME280;2377;51.734;8.950;2023-07-31T09:28:36;97175.34;;;17.20;100.00
27712;BME280;2377;51.734;8.950;2023-07-31T09:31:04;97171.41;;;17.28;100.00
27712;BME280;2377;51.734;8.950;2023-07-31T09:33:31;97165.72;;;17.31;100.00
27712;BME280;2377;51.734;8.950;2023-07-31T09:35:59;97166.63;;;17.40;100.00
27712;BME280;2377;51.734;8.950;2023-07-31T09:38:28;97163.47;;;17.48;100.00
27712;BME280;2377;51.734;8.950;2023-07-31T09:40:59;97167.00;;;17.58;100.00
27712;BME280;2377;51.734;8.950;2023-07-31T09:43:28;97162.88;;;17.57;100.00
27712;BME280;2377;51.734;8.950;2023-07-31T09:45:56;97154.97;;;17.72;100.00
27712;BME280;2377;51.734;8.950;2023-07-31T09:48:24;97159.38;;;17.71;100.00
27712;BME280;2377;51.734;8.950;2023-07-31T09:50:53;97160.72;;;17.69;100.00
27712;BME280;2377;51.734;8.950;2023-07-31T09:53:29;97158.84;;;17.74;100.00
27712;BME280;2377;51.734;8.950;2023-07-31T09:55:58;97148.69;;;17.83;100.00
27712;BME280;2377;51.734;8.950;2023-07-31T09:58:29;97155.38;;;17.84;100.00
27712;BME280;2377;51.734;8.950;2023-07-31T10:00:58;97154.88;;;17.87;100.00
27712;BME280;2377;51.734;8.950;2023-07-31T10:03:27;97145.59;;;17.81;100.00
27712;BME280;2377;51.734;8.950;2023-07-31T10:05:57;97143.22;;;17.85;100.00
27712;BME280;2377;51.734;8.950;2023-07-31T10:08:32;97144.22;;;17.89;100.00
27712;BME280;2377;51.734;8.950;2023-07-31T10:11:03;97146.03;;;17.88;100.00
27712;BME280;2377;51.734;8.950;2023-07-31T10:13:32;97145.97;;;17.93;100.00
27712;BME280;2377;51.734;8.950;2023-07-31T10:16:00;97150.72;;;17.86;100.00
27712;BME280;2377;51.734;8.950;2023-07-31T10:18:29;97145.00;;;17.89;100.00
27712;BME280;2377;51.734;8.950;2023-07-31T10:20:57;97150.16;;;17.89;100.00
27712;BME280;2377;51.734;8.950;2023-07-31T10:23:25;97132.56;;;17.91;100.00
27712;BME280;2377;51.734;8.950;2023-07-31T10:25:56;97136.75;;;17.87;100.00
27712;BME280;2377;51.734;8.950;2023-07-31T10:28:24;97129.72;;;17.93;100.00
27712;BME280;2377;51.734;8.950;2023-07-31T10:30:53;97128.38;;;17.95;100.00
27712;BME280;2377;51.734;8.950;2023-07-31T10:33:22;97136.19;;;17.90;100.00
27712;BME280;2377;51.734;8.950;2023-07-31T10:35:49;97132.06;;;17.89;100.00
27712;BME280;2377;51.734;8.950;2023-07-31T10:38:19;97122.84;;;17.83;100.00
27712;BME280;2377;51.734;8.950;2023-07-31T10:40:46;97131.03;;;17.90;100.00
27712;BME280;2377;51.734;8.950;2023-07-31T10:43:25;97123.28;;;17.90;100.00
27712;BME280;2377;51.734;8.950;2023-07-31T10:45:53;97119.13;;;17.89;100.00
27712;BME280;2377;51.734;8.950;2023-07-31T10:48:21;97122.50;;;17.90;100.00
27712;BME280;2377;51.734;8.950;2023-07-31T10:50:51;97126.19;;;17.84;100.00
27712;BME280;2377;51.734;8.950;2023-07-31T10:53:28;97130.34;;;17.80;100.00
27712;BME280;2377;51.734;8.950;2023-07-31T10:56:00;97120.75;;;17.85;100.00
27712;BME280;2377;51.734;8.950;2023-07-31T10:58:29;97118.66;;;17.87;100.00
27712;BME280;2377;51.734;8.950;2023-07-31T11:01:00;97111.47;;;17.79;100.00
27712;BME280;2377;51.734;8.950;2023-07-31T11:03:42;97110.41;;;17.80;100.00
27712;BME280;2377;51.734;8.950;2023-07-31T11:06:10;97117.16;;;17.81;100.00
27712;BME280;2377;51.734;8.950;2023-07-31T11:08:43;97127.03;;;17.74;100.00
27712;BME280;2377;51.734;8.950;2023-07-31T11:11:12;97122.53;;;17.61;100.00
27712;BME280;2377;51.734;8.950;2023-07-31T11:13:44;97123.53;;;17.65;100.00
27712;BME280;2377;51.734;8.950;2023-07-31T11:16:12;97122.00;;;17.64;100.00
27712;BME280;2377;51.734;8.950;2023-07-31T11:18:41;97123.28;;;17.61;100.00
27712;BME280;2377;51.734;8.950;2023-07-31T11:21:12;97121.63;;;17.70;100.00
27712;BME280;2377;51.734;8.950;2023-07-31T11:23:40;97121.16;;;17.68;100.00
27712;BME280;2377;51.734;8.950;2023-07-31T11:26:07;97121.44;;;17.67;100.00
27712;BME280;2377;51.734;8.950;2023-07-31T11:28:35;97123.19;;;17.71;100.00
27712;BME280;2377;51.734;8.950;2023-07-31T11:31:09;97113.34;;;17.73;100.00
27712;BME280;2377;51.734;8.950;2023-07-31T11:33:37;97116.47;;;17.70;100.00
27712;BME280;2377;51.734;8.950;2023-07-31T11:36:04;97109.00;;;17.69;100.00
27712;BME280;2377;51.734;8.950;2023-07-31T11:38:33;97112.56;;;17.73;100.00
27712;BME280;2377;51.734;8.950;2023-07-31T11:41:03;97115.59;;;17.80;100.00
27712;BME280;2377;51.734;8.950;2023-07-31T11:43:31;97101.69;;;17.76;100.00
27712;BME280;2377;51.734;8.950;2023-07-31T11:46:01;97101.41;;;17.78;100.00
27712;BME280;2377;51.734;8.950;2023-07-31T11:48:31;97101.91;;;17.80;100.00
27712;BME280;2377;51.734;8.950;2023-07-31T11:51:02;97099.78;;;17.87;100.00
27712;BME280;2377;51.734;8.950;2023-07-31T11:53:36;97099.09;;;17.76;100.00
27712;BME280;2377;51.734;8.950;2023-07-31T11:56:07;97103.72;;;17.79;100.00
27712;BME280;2377;51.734;8.950;2023-07-31T11:58:38;97099.31;;;17.80;100.00
27712;BME280;2377;51.734;8.950;2023-07-31T12:01:06;97086.69;;;17.78;100.00
27712;BME280;2377;51.734;8.950;2023-07-31T12:03:38;97100.63;;;17.77;100.00
27712;BME280;2377;51.734;8.950;2023-07-31T12:06:06;97101.13;;;17.79;100.00
27712;BME280;2377;51.734;8.950;2023-07-31T12:08:33;97099.09;;;17.76;100.00
27712;BME280;2377;51.734;8.950;2023-07-31T12:11:04;97097.25;;;17.58;100.00
27712;BME280;2377;51.734;8.950;2023-07-31T12:13:33;97105.38;;;17.70;100.00
27712;BME280;2377;51.734;8.950;2023-07-31T12:16:03;97100.19;;;17.70;100.00
27712;BME280;2377;51.734;8.950;2023-07-31T12:18:36;97093.56;;;17.64;100.00
27712;BME280;2377;51.734;8.950;2023-07-31T12:21:07;97093.56;;;17.64;100.00
27712;BME280;2377;51.734;8.950;2023-07-31T12:23:37;97095.66;;;17.62;100.00
27712;BME280;2377;51.734;8.950;2023-07-31T12:26:09;97092.28;;;17.61;100.00
27712;BME280;2377;51.734;8.950;2023-07-31T12:28:40;97092.56;;;17.60;100.00
27712;BME280;2377;51.734;8.950;2023-07-31T12:31:11;97088.66;;;17.62;100.00
27712;BME280;2377;51.734;8.950;2023-07-31T12:33:41;97081.16;;;17.61;100.00
27712;BME280;2377;51.734;8.950;2023-07-31T12:36:10;97079.53;;;17.70;100.00
27712;BME280;2377;51.734;8.950;2023-07-31T12:38:38;97075.53;;;17.78;100.00
27712;BME280;2377;51.734;8.950;2023-07-31T12:41:05;97079.41;;;17.80;100.00
27712;BME280;2377;51.734;8.950;2023-07-31T12:43:33;97080.16;;;17.86;100.00
27712;BME280;2377;51.734;8.950;2023-07-31T12:46:00;97079.81;;;17.92;100.00
27712;BME280;2377;51.734;8.950;2023-07-31T12:48:27;97067.31;;;18.00;100.00
27712;BME280;2377;51.734;8.950;2023-07-31T12:50:56;97064.16;;;18.03;100.00
27712;BME280;2377;51.734;8.950;2023-07-31T12:53:23;97077.03;;;18.08;100.00
27712;BME280;2377;51.734;8.950;2023-07-31T12:55:50;97075.66;;;18.15;100.00
27712;BME280;2377;51.734;8.950;2023-07-31T12:58:17;97073.19;;;18.05;100.00
27712;BME280;2377;51.734;8.950;2023-07-31T13:00:45;97082.25;;;18.03;100.00
27712;BME280;2377;51.734;8.950;2023-07-31T13:03:12;97062.63;;;18.02;100.00
27712;BME280;2377;51.734;8.950;2023-07-31T13:05:39;97072.91;;;18.07;100.00
27712;BME280;2377;51.734;8.950;2023-07-31T13:08:08;97056.47;;;17.98;100.00
27712;BME280;2377;51.734;8.950;2023-07-31T13:10:35;97072.19;;;18.01;100.00